sensor_id;sensor_type;location;lat;lon;timestamp;pressure;altitude;pressure_sealevel;temperature;humidity
5954;BME280;3002;42.642;24.812;2022-07-23T00:01:57;96694.28;;;25.16;42.68
5954;BME280;3002;42.642;24.812;2022-07-23T00:04:23;96674.16;;;25.04;42.64
5954;BME280;3002;42.642;24.812;2022-07-23T00:06:48;96694.69;;;25.14;42.62
5954;BME280;3002;42.642;24.812;2022-07-23T00:09:14;96676.19;;;25.11;42.29
5954;BME280;3002;42.642;24.812;2022-07-23T00:11:39;96693.13;;;25.17;42.18
5954;BME280;3002;42.642;24.812;2022-07-23T00:14:06;96683.38;;;25.19;41.93
5954;BME280;3002;42.642;24.812;2022-07-23T00:16:31;96677.81;;;25.16;42.33
5954;BME280;3002;42.642;24.812;2022-07-23T00:18:57;96667.19;;;25.11;42.21
5954;BME280;3002;42.642;24.812;2022-07-23T00:21:22;96667.25;;;25.18;42.06
5954;BME280;3002;42.642;24.812;2022-07-23T00:23:48;96657.81;;;25.15;41.98
5954;BME280;3002;42.642;24.812;2022-07-23T00:26:13;96672.75;;;25.18;42.58
5954;BME280;3002;42.642;24.812;2022-07-23T00:28:39;96667.69;;;25.20;42.45
5954;BME280;3002;42.642;24.812;2022-07-23T00:31:04;96669.19;;;25.14;42.34
5954;BME280;3002;42.642;24.812;2022-07-23T00:33:30;96664.94;;;25.23;41.98
5954;BME280;3002;42.642;24.812;2022-07-23T00:35:56;96674.84;;;25.31;42.17
5954;BME280;3002;42.642;24.812;2022-07-23T00:38:23;96667.75;;;25.30;42.24
5954;BME280;3002;42.642;24.812;2022-07-23T00:40:48;96668.56;;;25.31;42.30
5954;BME280;3002;42.642;24.812;2022-07-23T00:43:14;96650.06;;;25.24;41.98
5954;BME280;3002;42.642;24.812;2022-07-23T00:45:39;96663.03;;;25.27;42.31
5954;BME280;3002;42.642;24.812;2022-07-23T00:48:05;96661.41;;;25.23;42.62
5954;BME280;3002;42.642;24.812;2022-07-23T00:50:30;96645.22;;;25.11;42.72
5954;BME280;3002;42.642;24.812;2022-07-23T00:52:56;96656.34;;;25.25;42.34
5954;BME280;3002;42.642;24.812;2022-07-23T00:55:22;96657.16;;;25.25;42.48
5954;BME280;3002;42.642;24.812;2022-07-23T00:57:47;96662.66;;;25.29;42.28
5954;BME280;3002;42.642;24.812;2022-07-23T01:00:14;96662.25;;;25.27;42.22
5954;BME280;3002;42.642;24.812;2022-07-23T01:02:40;96656.34;;;25.25;42.51
5954;BME280;3002;42.642;24.812;2022-07-23T01:05:07;96659.34;;;25.13;42.83
5954;BME280;3002;42.642;24.812;2022-07-23T01:07:33;96653.06;;;25.08;42.62
5954;BME280;3002;42.642;24.812;2022-07-23T01:09:59;96661.69;;;25.07;42.39
5954;BME280;3002;42.642;24.812;2022-07-23T01:12:25;96651.50;;;25.07;42.47
5954;BME280;3002;42.642;24.812;2022-07-23T01:14:55;96649.16;;;25.09;42.45
5954;BME280;3002;42.642;24.812;2022-07-23T01:17:21;96649.16;;;25.09;42.12
5954;BME280;3002;42.642;24.812;2022-07-23T01:19:46;96649.78;;;24.96;42.24
5954;BME280;3002;42.642;24.812;2022-07-23T01:22:12;96638.63;;;24.81;43.15
5954;BME280;3002;42.642;24.812;2022-07-23T01:24:38;96654.69;;;24.79;44.46
5954;BME280;3002;42.642;24.812;2022-07-23T01:27:04;96656.19;;;24.13;51.39
5954;BME280;3002;42.642;24.812;2022-07-23T01:29:30;96663.78;;;23.70;53.15
5954;BME280;3002;42.642;24.812;2022-07-23T01:31:56;96661.88;;;23.52;54.81
5954;BME280;3002;42.642;24.812;2022-07-23T01:34:21;96656.47;;;23.09;56.80
5954;BME280;3002;42.642;24.812;2022-07-23T01:36:47;96661.16;;;22.89;57.61
5954;BME280;3002;42.642;24.812;2022-07-23T01:39:12;96645.34;;;22.79;58.42
5954;BME280;3002;42.642;24.812;2022-07-23T01:41:38;96658.00;;;22.68;59.04
5954;BME280;3002;42.642;24.812;2022-07-23T01:44:03;96655.59;;;22.66;59.11
5954;BME280;3002;42.642;24.812;2022-07-23T01:46:29;96646.69;;;22.69;58.97
5954;BME280;3002;42.642;24.812;2022-07-23T01:48:54;96660.00;;;22.71;59.20
5954;BME280;3002;42.642;24.812;2022-07-23T01:51:20;96659.94;;;22.48;58.61
5954;BME280;3002;42.642;24.812;2022-07-23T01:53:45;96653.97;;;22.42;57.79
5954;BME280;3002;42.642;24.812;2022-07-23T01:56:11;96657.78;;;22.38;58.57
5954;BME280;3002;42.642;24.812;2022-07-23T01:58:36;96643.97;;;22.31;58.06
5954;BME280;3002;42.642;24.812;2022-07-23T02:01:02;96644.84;;;22.35;57.33
5954;BME280;3002;42.642;24.812;2022-07-23T02:03:27;96649.66;;;22.41;57.42
5954;BME280;3002;42.642;24.812;2022-07-23T02:05:53;96649.28;;;22.43;57.83
5954;BME280;3002;42.642;24.812;2022-07-23T02:08:19;96626.50;;;22.16;58.59
5954;BME280;3002;42.642;24.812;2022-07-23T02:10:45;96633.34;;;22.26;58.45
5954;BME280;3002;42.642;24.812;2022-07-23T02:13:11;96628.72;;;22.10;59.18
5954;BME280;3002;42.642;24.812;2022-07-23T02:15:36;96641.56;;;22.10;59.57
5954;BME280;3002;42.642;24.812;2022-07-23T02:18:02;96642.09;;;22.00;59.68
5954;BME280;3002;42.642;24.812;2022-07-23T02:20:27;96638.22;;;22.01;59.99
5954;BME280;3002;42.642;24.812;2022-07-23T02:22:53;96640.16;;;22.00;59.72
5954;BME280;3002;42.642;24.812;2022-07-23T02:25:18;96632.19;;;21.91;60.57
5954;BME280;3002;42.642;24.812;2022-07-23T02:27:44;96634.94;;;21.76;61.03
5954;BME280;3002;42.642;24.812;2022-07-23T02:30:10;96649.66;;;21.71;61.00
5954;BME280;3002;42.642;24.812;2022-07-23T02:32:36;96650.72;;;21.51;61.26
5954;BME280;3002;42.642;24.812;2022-07-23T02:35:03;96649.16;;;21.50;60.71
5954;BME280;3002;42.642;24.812;2022-07-23T02:37:29;96651.44;;;21.48;61.25
5954;BME280;3002;42.642;24.812;2022-07-23T02:39:54;96643.16;;;21.44;60.95
5954;BME280;3002;42.642;24.812;2022-07-23T02:42:20;96655.91;;;21.40;61.51
5954;BME280;3002;42.642;24.812;2022-07-23T02:44:46;96649.66;;;21.40;62.16
5954;BME280;3002;42.642;24.812;2022-07-23T02:47:11;96648.09;;;21.38;62.42
5954;BME280;3002;42.642;24.812;2022-07-23T02:49:36;96647.34;;;21.26;63.17
5954;BME280;3002;42.642;24.812;2022-07-23T02:52:02;96641.28;;;21.17;63.35
5954;BME280;3002;42.642;24.812;2022-07-23T02:54:28;96653.50;;;21.07;63.88
5954;BME280;3002;42.642;24.812;2022-07-23T02:56:53;96657.03;;;21.07;64.56
5954;BME280;3002;42.642;24.812;2022-07-23T02:59:19;96634.22;;;20.84;64.76
5954;BME280;3002;42.642;24.812;2022-07-23T03:01:45;96642.50;;;20.88;64.74
5954;BME280;3002;42.642;24.812;2022-07-23T03:04:11;96647.88;;;21.00;65.01
5954;BME280;3002;42.642;24.812;2022-07-23T03:06:36;96654.19;;;21.04;64.51
5954;BME280;3002;42.642;24.812;2022-07-23T03:09:03;96670.13;;;21.02;65.12
5954;BME280;3002;42.642;24.812;2022-07-23T03:11:29;96671.34;;;20.89;65.32
5954;BME280;3002;42.642;24.812;2022-07-23T03:13:54;96662.06;;;20.77;66.01
5954;BME280;3002;42.642;24.812;2022-07-23T03:16:20;96677.03;;;20.83;65.26
5954;BME280;3002;42.642;24.812;2022-07-23T03:18:45;96648.41;;;20.62;65.05
5954;BME280;3002;42.642;24.812;2022-07-23T03:21:11;96668.56;;;20.73;64.85
5954;BME280;3002;42.642;24.812;2022-07-23T03:23:36;96660.38;;;20.73;64.45
5954;BME280;3002;42.642;24.812;2022-07-23T03:26:02;96670.69;;;20.79;64.74
5954;BME280;3002;42.642;24.812;2022-07-23T03:28:28;96677.94;;;20.88;65.72
5954;BME280;3002;42.642;24.812;2022-07-23T03:30:53;96658.69;;;20.68;66.04
5954;BME280;3002;42.642;24.812;2022-07-23T03:33:20;96688.47;;;20.89;65.45
5954;BME280;3002;42.642;24.812;2022-07-23T03:35:46;96680.91;;;20.98;65.49
5954;BME280;3002;42.642;24.812;2022-07-23T03:38:12;96686.38;;;20.98;66.06
5954;BME280;3002;42.642;24.812;2022-07-23T03:40:38;96671.09;;;20.94;65.75
5954;BME280;3002;42.642;24.812;2022-07-23T03:43:03;96682.53;;;20.99;66.03
5954;BME280;3002;42.642;24.812;2022-07-23T03:45:30;96677.06;;;20.99;66.22
5954;BME280;3002;42.642;24.812;2022-07-23T03:47:55;96678.06;;;21.07;66.52
5954;BME280;3002;42.642;24.812;2022-07-23T03:50:21;96670.38;;;20.97;67.75
5954;BME280;3002;42.642;24.812;2022-07-23T03:52:47;96668.06;;;20.99;68.16
5954;BME280;3002;42.642;24.812;2022-07-23T03:55:12;96675.75;;;21.09;68.47
5954;BME280;3002;42.642;24.812;2022-07-23T03:57:38;96681.91;;;21.06;69.28
5954;BME280;3002;42.642;24.812;2022-07-23T04:00:05;96676.38;;;21.02;69.38
5954;BME280;3002;42.642;24.812;2022-07-23T04:02:32;96680.00;;;21.06;70.33
5954;BME280;3002;42.642;24.812;2022-07-23T04:04:58;96686.59;;;21.21;68.60
5954;BME280;3002;42.642;24.812;2022-07-23T04:07:24;96681.25;;;21.25;68.16
5954;BME280;3002;42.642;24.812;2022-07-23T04:09:50;96672.84;;;21.30;68.21
5954;BME280;3002;42.642;24.812;2022-07-23T04:12:15;96683.38;;;21.31;69.55
5954;BME280;3002;42.642;24.812;2022-07-23T04:14:41;96676.69;;;21.29;71.17
5954;BME280;3002;42.642;24.812;2022-07-23T04:17:06;96692.47;;;21.35;71.26
5954;BME280;3002;42.642;24.812;2022-07-23T04:19:32;96685.31;;;21.47;71.99
5954;BME280;3002;42.642;24.812;2022-07-23T04:21:57;96688.38;;;21.77;70.19
5954;BME280;3002;42.642;24.812;2022-07-23T04:24:23;96692.75;;;21.97;68.90
5954;BME280;3002;42.642;24.812;2022-07-23T04:26:49;96693.66;;;22.01;67.40
5954;BME280;3002;42.642;24.812;2022-07-23T04:29:14;96695.75;;;22.08;69.90
5954;BME280;3002;42.642;24.812;2022-07-23T04:31:39;96695.53;;;22.32;69.46
5954;BME280;3002;42.642;24.812;2022-07-23T04:34:05;96683.69;;;22.44;68.75
5954;BME280;3002;42.642;24.812;2022-07-23T04:36:30;96676.13;;;22.76;66.39
5954;BME280;3002;42.642;24.812;2022-07-23T04:38:56;96692.56;;;23.18;68.76
5954;BME280;3002;42.642;24.812;2022-07-23T04:41:22;96683.22;;;23.42;65.30
5954;BME280;3002;42.642;24.812;2022-07-23T04:43:47;96687.59;;;23.47;67.32
5954;BME280;3002;42.642;24.812;2022-07-23T04:46:13;96701.88;;;23.60;66.20
5954;BME280;3002;42.642;24.812;2022-07-23T04:48:39;96675.78;;;23.89;62.45
5954;BME280;3002;42.642;24.812;2022-07-23T04:51:05;96700.00;;;24.13;62.04
5954;BME280;3002;42.642;24.812;2022-07-23T04:53:30;96694.78;;;24.31;61.40
5954;BME280;3002;42.642;24.812;2022-07-23T04:55:55;96693.94;;;24.53;56.86
5954;BME280;3002;42.642;24.812;2022-07-23T04:58:21;96690.53;;;24.97;58.55
5954;BME280;3002;42.642;24.812;2022-07-23T05:00:47;96698.06;;;25.04;59.57
5954;BME280;3002;42.642;24.812;2022-07-23T05:03:13;96695.47;;;25.18;57.66
5954;BME280;3002;42.642;24.812;2022-07-23T05:05:38;96684.94;;;25.24;58.34
5954;BME280;3002;42.642;24.812;2022-07-23T05:08:04;96696.44;;;25.77;56.16
5954;BME280;3002;42.642;24.812;2022-07-23T05:10:30;96692.69;;;26.00;52.83
5954;BME280;3002;42.642;24.812;2022-07-23T05:12:55;96697.44;;;26.06;52.93
5954;BME280;3002;42.642;24.812;2022-07-23T05:15:21;96696.44;;;26.36;54.13
5954;BME280;3002;42.642;24.812;2022-07-23T05:17:46;96701.31;;;26.60;51.79
5954;BME280;3002;42.642;24.812;2022-07-23T05:20:12;96688.31;;;26.54;50.28
5954;BME280;3002;42.642;24.812;2022-07-23T05:22:38;96690.69;;;26.55;50.77
5954;BME280;3002;42.642;24.812;2022-07-23T05:25:04;96692.31;;;26.67;49.69
5954;BME280;3002;42.642;24.812;2022-07-23T05:27:30;96695.91;;;26.85;48.34
5954;BME280;3002;42.642;24.812;2022-07-23T05:29:55;96688.56;;;27.21;46.89
5954;BME280;3002;42.642;24.812;2022-07-23T05:32:21;96694.94;;;27.61;48.16
5954;BME280;3002;42.642;24.812;2022-07-23T05:34:46;96686.66;;;27.68;47.87
5954;BME280;3002;42.642;24.812;2022-07-23T05:37:12;96687.09;;;27.81;47.62
5954;BME280;3002;42.642;24.812;2022-07-23T05:39:37;96686.66;;;28.04;47.86
5954;BME280;3002;42.642;24.812;2022-07-23T05:42:03;96693.00;;;27.72;47.76
5954;BME280;3002;42.642;24.812;2022-07-23T05:44:28;96683.91;;;28.00;46.99
5954;BME280;3002;42.642;24.812;2022-07-23T05:46:54;96687.44;;;28.15;47.28
5954;BME280;3002;42.642;24.812;2022-07-23T05:49:19;96686.28;;;27.59;47.92
5954;BME280;3002;42.642;24.812;2022-07-23T05:51:45;96681.94;;;27.94;48.31
5954;BME280;3002;42.642;24.812;2022-07-23T05:54:10;96685.44;;;28.41;46.62
5954;BME280;3002;42.642;24.812;2022-07-23T05:56:36;96693.97;;;28.86;46.06
5954;BME280;3002;42.642;24.812;2022-07-23T05:59:01;96691.06;;;29.14;45.83
5954;BME280;3002;42.642;24.812;2022-07-23T06:01:27;96694.97;;;29.24;44.60
5954;BME280;3002;42.642;24.812;2022-07-23T06:03:53;96700.44;;;28.25;47.46
5954;BME280;3002;42.642;24.812;2022-07-23T06:06:18;96686.78;;;29.06;46.57
5954;BME280;3002;42.642;24.812;2022-07-23T06:08:44;96691.47;;;29.16;46.31
5954;BME280;3002;42.642;24.812;2022-07-23T06:11:09;96694.81;;;29.49;45.74
5954;BME280;3002;42.642;24.812;2022-07-23T06:13:34;96686.78;;;29.69;44.41
5954;BME280;3002;42.642;24.812;2022-07-23T06:16:00;96683.28;;;30.13;42.82
5954;BME280;3002;42.642;24.812;2022-07-23T06:18:26;96684.88;;;30.10;45.56
5954;BME280;3002;42.642;24.812;2022-07-23T06:20:51;96686.81;;;30.10;43.49
5954;BME280;3002;42.642;24.812;2022-07-23T06:23:17;96689.59;;;30.10;43.87
5954;BME280;3002;42.642;24.812;2022-07-23T06:25:43;96661.78;;;29.31;44.31
5954;BME280;3002;42.642;24.812;2022-07-23T06:28:08;96676.78;;;29.85;43.79
5954;BME280;3002;42.642;24.812;2022-07-23T06:30:34;96687.75;;;30.41;42.31
5954;BME280;3002;42.642;24.812;2022-07-23T06:32:59;96682.78;;;30.22;43.00
5954;BME280;3002;42.642;24.812;2022-07-23T06:35:25;96678.34;;;29.35;42.12
5954;BME280;3002;42.642;24.812;2022-07-23T06:37:50;96685.53;;;30.25;41.65
5954;BME280;3002;42.642;24.812;2022-07-23T06:40:16;96690.19;;;31.00;40.61
5954;BME280;3002;42.642;24.812;2022-07-23T06:42:41;96687.75;;;31.36;39.01
5954;BME280;3002;42.642;24.812;2022-07-23T06:45:07;96685.28;;;31.69;37.94
5954;BME280;3002;42.642;24.812;2022-07-23T06:47:33;96675.75;;;31.70;37.85
5954;BME280;3002;42.642;24.812;2022-07-23T06:49:58;96681.16;;;32.04;37.38
5954;BME280;3002;42.642;24.812;2022-07-23T06:52:24;96682.25;;;32.54;36.68
5954;BME280;3002;42.642;24.812;2022-07-23T06:54:51;96678.22;;;31.64;37.37
5954;BME280;3002;42.642;24.812;2022-07-23T06:57:17;96665.78;;;32.43;35.59
5954;BME280;3002;42.642;24.812;2022-07-23T06:59:42;96671.25;;;32.86;35.05
5954;BME280;3002;42.642;24.812;2022-07-23T07:02:08;96662.06;;;32.93;35.26
5954;BME280;3002;42.642;24.812;2022-07-23T07:04:33;96668.41;;;33.10;35.31
5954;BME280;3002;42.642;24.812;2022-07-23T07:06:59;96657.56;;;32.16;35.60
5954;BME280;3002;42.642;24.812;2022-07-23T07:09:25;96663.00;;;33.02;35.90
5954;BME280;3002;42.642;24.812;2022-07-23T07:11:50;96668.78;;;33.28;34.95
5954;BME280;3002;42.642;24.812;2022-07-23T07:14:16;96662.59;;;33.57;33.26
5954;BME280;3002;42.642;24.812;2022-07-23T07:16:41;96652.78;;;33.52;32.68
5954;BME280;3002;42.642;24.812;2022-07-23T07:19:07;96676.44;;;33.93;33.86
5954;BME280;3002;42.642;24.812;2022-07-23T07:21:32;96658.81;;;34.45;33.22
5954;BME280;3002;42.642;24.812;2022-07-23T07:23:58;96656.13;;;34.25;34.19
5954;BME280;3002;42.642;24.812;2022-07-23T07:26:23;96666.41;;;34.12;32.43
5954;BME280;3002;42.642;24.812;2022-07-23T07:28:49;96655.28;;;34.41;32.21
5954;BME280;3002;42.642;24.812;2022-07-23T07:31:15;96654.06;;;34.42;32.42
5954;BME280;3002;42.642;24.812;2022-07-23T07:33:40;96657.59;;;34.58;32.43
5954;BME280;3002;42.642;24.812;2022-07-23T07:36:06;96647.97;;;34.18;32.67
5954;BME280;3002;42.642;24.812;2022-07-23T07:38:31;96651.34;;;34.54;33.62
5954;BME280;3002;42.642;24.812;2022-07-23T07:40:57;96653.09;;;35.57;32.50
5954;BME280;3002;42.642;24.812;2022-07-23T07:43:22;96649.47;;;35.82;31.84
5954;BME280;3002;42.642;24.812;2022-07-23T07:45:48;96645.59;;;35.42;32.03
5954;BME280;3002;42.642;24.812;2022-07-23T07:48:13;96630.84;;;35.66;31.19
5954;BME280;3002;42.642;24.812;2022-07-23T07:50:39;96629.88;;;35.09;31.45
5954;BME280;3002;42.642;24.812;2022-07-23T07:53:04;96607.25;;;34.53;31.97
5954;BME280;3002;42.642;24.812;2022-07-23T07:55:30;96621.56;;;33.93;33.36
5954;BME280;3002;42.642;24.812;2022-07-23T07:57:57;96632.72;;;34.80;31.54
5954;BME280;3002;42.642;24.812;2022-07-23T08:00:22;96608.22;;;35.13;31.52
5954;BME280;3002;42.642;24.812;2022-07-23T08:02:50;96627.03;;;35.73;30.45
5954;BME280;3002;42.642;24.812;2022-07-23T08:05:23;96619.25;;;36.15;30.35
5954;BME280;3002;42.642;24.812;2022-07-23T08:07:49;96628.66;;;36.87;29.48
5954;BME280;3002;42.642;24.812;2022-07-23T08:10:15;96624.66;;;36.76;29.06
5954;BME280;3002;42.642;24.812;2022-07-23T08:12:42;96628.03;;;36.27;29.16
5954;BME280;3002;42.642;24.812;2022-07-23T08:15:10;96633.28;;;36.59;28.79
5954;BME280;3002;42.642;24.812;2022-07-23T08:17:36;96634.28;;;36.31;29.24
5954;BME280;3002;42.642;24.812;2022-07-23T08:20:03;96602.13;;;35.91;29.74
5954;BME280;3002;42.642;24.812;2022-07-23T08:25:26;96620.59;;;37.20;28.16
5954;BME280;3002;42.642;24.812;2022-07-23T08:27:52;96611.91;;;35.23;30.16
5954;BME280;3002;42.642;24.812;2022-07-23T08:30:18;96619.78;;;35.88;31.19
5954;BME280;3002;42.642;24.812;2022-07-23T08:33:04;96611.59;;;35.34;30.96
5954;BME280;3002;42.642;24.812;2022-07-23T08:35:42;96613.00;;;36.90;28.34
5954;BME280;3002;42.642;24.812;2022-07-23T08:38:10;96609.06;;;37.18;27.32
5954;BME280;3002;42.642;24.812;2022-07-23T08:40:38;96619.47;;;37.18;28.28
5954;BME280;3002;42.642;24.812;2022-07-23T08:43:06;96577.31;;;36.50;28.11
5954;BME280;3002;42.642;24.812;2022-07-23T08:45:36;96594.84;;;35.59;28.80
5954;BME280;3002;42.642;24.812;2022-07-23T08:48:03;96610.41;;;37.05;28.94
5954;BME280;3002;42.642;24.812;2022-07-23T08:50:30;96613.97;;;36.52;27.89
5954;BME280;3002;42.642;24.812;2022-07-23T08:52:58;96610.06;;;36.50;28.09
5954;BME280;3002;42.642;24.812;2022-07-23T08:55:24;96601.63;;;35.71;29.19
5954;BME280;3002;42.642;24.812;2022-07-23T08:57:53;96569.72;;;36.07;28.23
5954;BME280;3002;42.642;24.812;2022-07-23T09:00:20;96581.84;;;36.79;27.10
5954;BME280;3002;42.642;24.812;2022-07-23T09:02:46;96588.44;;;36.94;27.47
5954;BME280;3002;42.642;24.812;2022-07-23T09:05:13;96616.38;;;37.56;27.36
5954;BME280;3002;42.642;24.812;2022-07-23T09:13:39;96609.47;;;38.43;26.17
5954;BME280;3002;42.642;24.812;2022-07-23T09:16:14;96609.31;;;38.19;25.93
5954;BME280;3002;42.642;24.812;2022-07-23T09:18:46;96605.91;;;37.38;26.64
5954;BME280;3002;42.642;24.812;2022-07-23T09:21:21;96601.88;;;38.35;26.42
5954;BME280;3002;42.642;24.812;2022-07-23T09:23:53;96607.00;;;38.36;25.39
5954;BME280;3002;42.642;24.812;2022-07-23T09:26:38;96612.91;;;38.75;25.53
5954;BME280;3002;42.642;24.812;2022-07-23T09:29:17;96598.56;;;38.64;26.34
5954;BME280;3002;42.642;24.812;2022-07-23T09:31:54;96592.81;;;38.21;26.96
5954;BME280;3002;42.642;24.812;2022-07-23T09:34:25;96580.38;;;38.04;26.42
5954;BME280;3002;42.642;24.812;2022-07-23T09:37:07;96578.19;;;38.17;25.45
5954;BME280;3002;42.642;24.812;2022-07-23T09:39:33;96577.53;;;36.87;27.03
5954;BME280;3002;42.642;24.812;2022-07-23T09:44:51;96593.31;;;39.17;25.38
5954;BME280;3002;42.642;24.812;2022-07-23T09:47:18;96580.94;;;38.81;25.87
5954;BME280;3002;42.642;24.812;2022-07-23T09:52:44;96559.28;;;36.95;27.50
5954;BME280;3002;42.642;24.812;2022-07-23T09:55:10;96561.63;;;38.74;25.40
5954;BME280;3002;42.642;24.812;2022-07-23T09:57:36;96543.47;;;38.24;25.47
5954;BME280;3002;42.642;24.812;2022-07-23T10:00:04;96546.75;;;37.67;26.43
5954;BME280;3002;42.642;24.812;2022-07-23T10:02:32;96553.34;;;38.89;25.78
5954;BME280;3002;42.642;24.812;2022-07-23T10:04:59;96567.53;;;40.00;25.53
5954;BME280;3002;42.642;24.812;2022-07-23T10:07:27;96543.88;;;39.92;24.56
5954;BME280;3002;42.642;24.812;2022-07-23T10:09:55;96549.31;;;40.19;23.15
5954;BME280;3002;42.642;24.812;2022-07-23T10:12:22;96561.69;;;40.42;21.82
5954;BME280;3002;42.642;24.812;2022-07-23T10:15:06;96551.72;;;37.14;25.14
5954;BME280;3002;42.642;24.812;2022-07-23T10:17:32;96539.63;;;37.85;24.82
5954;BME280;3002;42.642;24.812;2022-07-23T10:19:58;96550.03;;;39.00;23.81
5954;BME280;3002;42.642;24.812;2022-07-23T10:22:26;96555.31;;;39.64;23.39
5954;BME280;3002;42.642;24.812;2022-07-23T10:37:57;96496.03;;;42.27;18.39
5954;BME280;3002;42.642;24.812;2022-07-23T10:40:25;96523.56;;;42.11;18.28
5954;BME280;3002;42.642;24.812;2022-07-23T10:42:52;96504.47;;;41.75;18.31
5954;BME280;3002;42.642;24.812;2022-07-23T10:47:54;96508.84;;;41.61;18.91
5954;BME280;3002;42.642;24.812;2022-07-23T10:50:28;96511.06;;;41.51;18.98
5954;BME280;3002;42.642;24.812;2022-07-23T10:58:02;96496.22;;;42.75;18.06
5954;BME280;3002;42.642;24.812;2022-07-23T11:00:30;96510.06;;;43.47;17.25
5954;BME280;3002;42.642;24.812;2022-07-23T11:02:58;96498.41;;;42.91;17.46
5954;BME280;3002;42.642;24.812;2022-07-23T11:05:38;96502.22;;;40.44;18.94
5954;BME280;3002;42.642;24.812;2022-07-23T11:10:38;96478.44;;;41.44;18.02
5954;BME280;3002;42.642;24.812;2022-07-23T11:24:06;96485.75;;;43.18;17.41
5954;BME280;3002;42.642;24.812;2022-07-23T11:34:35;96471.00;;;42.34;18.08
5954;BME280;3002;42.642;24.812;2022-07-23T11:37:03;96483.19;;;42.20;18.70
5954;BME280;3002;42.642;24.812;2022-07-23T11:39:31;96479.41;;;43.29;17.79
5954;BME280;3002;42.642;24.812;2022-07-23T11:41:57;96469.44;;;42.96;18.33
5954;BME280;3002;42.642;24.812;2022-07-23T11:44:34;96470.16;;;43.28;18.18
5954;BME280;3002;42.642;24.812;2022-07-23T11:47:10;96477.47;;;43.52;17.64
5954;BME280;3002;42.642;24.812;2022-07-23T11:49:37;96471.31;;;43.05;17.46
5954;BME280;3002;42.642;24.812;2022-07-23T11:52:09;96474.53;;;43.84;17.16
5954;BME280;3002;42.642;24.812;2022-07-23T11:54:40;96455.88;;;42.63;17.80
5954;BME280;3002;42.642;24.812;2022-07-23T11:57:13;96477.06;;;42.85;17.64
5954;BME280;3002;42.642;24.812;2022-07-23T11:59:39;96456.41;;;43.53;17.47
5954;BME280;3002;42.642;24.812;2022-07-23T12:02:06;96461.94;;;43.79;16.80
5954;BME280;3002;42.642;24.812;2022-07-23T12:04:42;96444.84;;;43.45;16.49
5954;BME280;3002;42.642;24.812;2022-07-23T12:07:34;96460.69;;;43.97;16.39
5954;BME280;3002;42.642;24.812;2022-07-23T12:12:40;96452.56;;;43.50;16.27
5954;BME280;3002;42.642;24.812;2022-07-23T12:15:07;96466.19;;;43.52;16.42
5954;BME280;3002;42.642;24.812;2022-07-23T12:17:36;96473.44;;;43.70;16.64
5954;BME280;3002;42.642;24.812;2022-07-23T12:20:04;96463.72;;;43.82;16.24
5954;BME280;3002;42.642;24.812;2022-07-23T12:22:40;96459.13;;;43.31;16.64
5954;BME280;3002;42.642;24.812;2022-07-23T12:25:07;96465.75;;;43.22;16.87
5954;BME280;3002;42.642;24.812;2022-07-23T12:27:33;96441.31;;;42.39;16.92
5954;BME280;3002;42.642;24.812;2022-07-23T12:30:14;96430.88;;;42.82;16.48
5954;BME280;3002;42.642;24.812;2022-07-23T12:32:43;96439.06;;;43.83;16.21
5954;BME280;3002;42.642;24.812;2022-07-23T12:35:09;96423.81;;;42.61;15.96
5954;BME280;3002;42.642;24.812;2022-07-23T12:37:38;96461.03;;;42.70;16.92
5954;BME280;3002;42.642;24.812;2022-07-23T12:40:26;96443.28;;;43.39;16.01
5954;BME280;3002;42.642;24.812;2022-07-23T12:45:20;96446.94;;;42.65;16.14
5954;BME280;3002;42.642;24.812;2022-07-23T12:47:59;96440.38;;;41.29;16.98
5954;BME280;3002;42.642;24.812;2022-07-23T12:50:37;96438.75;;;40.87;17.75
5954;BME280;3002;42.642;24.812;2022-07-23T12:53:17;96417.63;;;40.12;17.94
5954;BME280;3002;42.642;24.812;2022-07-23T12:55:45;96434.44;;;40.42;18.58
5954;BME280;3002;42.642;24.812;2022-07-23T12:58:14;96437.06;;;40.60;18.91
5954;BME280;3002;42.642;24.812;2022-07-23T13:01:03;96416.19;;;40.66;18.93
5954;BME280;3002;42.642;24.812;2022-07-23T13:03:40;96430.97;;;39.87;18.32
5954;BME280;3002;42.642;24.812;2022-07-23T13:06:08;96410.53;;;39.87;18.71
5954;BME280;3002;42.642;24.812;2022-07-23T13:08:35;96422.75;;;39.84;19.65
5954;BME280;3002;42.642;24.812;2022-07-23T13:11:01;96408.38;;;39.82;19.38
5954;BME280;3002;42.642;24.812;2022-07-23T13:13:29;96413.53;;;39.83;18.70
5954;BME280;3002;42.642;24.812;2022-07-23T13:15:56;96424.34;;;39.61;18.92
5954;BME280;3002;42.642;24.812;2022-07-23T13:18:22;96417.31;;;39.66;19.03
5954;BME280;3002;42.642;24.812;2022-07-23T13:20:48;96407.38;;;39.55;19.01
5954;BME280;3002;42.642;24.812;2022-07-23T13:23:15;96417.88;;;39.46;19.98
5954;BME280;3002;42.642;24.812;2022-07-23T13:25:46;96418.09;;;39.42;19.92
5954;BME280;3002;42.642;24.812;2022-07-23T13:28:13;96414.28;;;39.30;19.56
5954;BME280;3002;42.642;24.812;2022-07-23T13:30:39;96413.19;;;39.28;19.52
5954;BME280;3002;42.642;24.812;2022-07-23T13:33:05;96428.44;;;39.36;19.67
5954;BME280;3002;42.642;24.812;2022-07-23T13:35:32;96419.78;;;39.25;20.39
5954;BME280;3002;42.642;24.812;2022-07-23T13:37:58;96411.34;;;39.01;19.63
5954;BME280;3002;42.642;24.812;2022-07-23T13:40:24;96419.63;;;39.43;20.02
5954;BME280;3002;42.642;24.812;2022-07-23T13:42:50;96416.84;;;39.58;20.68
5954;BME280;3002;42.642;24.812;2022-07-23T13:45:15;96431.09;;;39.54;20.60
5954;BME280;3002;42.642;24.812;2022-07-23T13:47:41;96395.78;;;39.00;20.53
5954;BME280;3002;42.642;24.812;2022-07-23T13:50:06;96415.13;;;39.22;19.90
5954;BME280;3002;42.642;24.812;2022-07-23T13:52:32;96418.50;;;39.02;20.30
5954;BME280;3002;42.642;24.812;2022-07-23T13:55:01;96415.22;;;39.03;20.24
5954;BME280;3002;42.642;24.812;2022-07-23T13:57:27;96414.06;;;39.19;20.20
5954;BME280;3002;42.642;24.812;2022-07-23T13:59:52;96412.00;;;39.44;19.28
5954;BME280;3002;42.642;24.812;2022-07-23T14:02:18;96412.00;;;39.44;20.09
5954;BME280;3002;42.642;24.812;2022-07-23T14:04:44;96404.59;;;39.07;19.45
5954;BME280;3002;42.642;24.812;2022-07-23T14:07:10;96404.66;;;39.22;19.01
5954;BME280;3002;42.642;24.812;2022-07-23T14:09:36;96404.13;;;38.85;20.43
5954;BME280;3002;42.642;24.812;2022-07-23T14:12:03;96386.84;;;38.53;20.05